createdAt,value
2023-02-01T00:00:14.247Z,3.05
2023-02-01T00:05:15.809Z,3.45
2023-02-01T00:07:49.476Z,2.80
2023-02-01T00:10:16.904Z,2.67
2023-02-01T00:12:57.603Z,3.35
2023-02-01T00:15:24.696Z,4.18
2023-02-01T00:17:55.776Z,3.28
2023-02-01T00:20:29.376Z,3.13
2023-02-01T00:22:56.517Z,3.72
2023-02-01T00:25:30.413Z,3.00
2023-02-01T00:27:59.763Z,3.20
2023-02-01T00:30:26.929Z,3.00
2023-02-01T00:33:00.460Z,3.22
2023-02-01T00:35:27.603Z,3.85
2023-02-01T00:38:01.533Z,3.17
2023-02-01T00:40:28.763Z,2.95
2023-02-01T00:42:55.983Z,2.65
2023-02-01T00:45:29.394Z,3.03
2023-02-01T00:47:56.696Z,4.35
2023-02-01T00:50:30.436Z,2.80
2023-02-01T00:52:58.130Z,3.65
2023-02-01T00:55:25.234Z,3.17
2023-02-01T00:57:59.399Z,3.67
2023-02-01T01:00:26.569Z,3.47
2023-02-01T01:03:00.589Z,3.05
2023-02-01T01:05:28.753Z,2.95
2023-02-01T01:07:55.964Z,2.95
2023-02-01T01:10:29.479Z,2.97
2023-02-01T01:13:10.452Z,4.05
2023-02-01T01:15:45.476Z,3.50
2023-02-01T01:18:19.341Z,2.65
2023-02-01T01:20:46.626Z,2.95
2023-02-01T01:23:13.795Z,3.92
2023-02-01T01:25:47.455Z,3.35
2023-02-01T01:28:14.630Z,3.20
2023-02-01T01:30:48.433Z,3.10
2023-02-01T01:33:15.643Z,3.00
2023-02-01T01:35:42.882Z,3.35
2023-02-01T01:38:17.464Z,2.97
2023-02-01T01:40:48.062Z,2.83
2023-02-01T01:43:27.565Z,3.28
2023-02-01T01:45:54.670Z,2.25
2023-02-01T01:48:25.019Z,2.80
2023-02-01T01:51:00.393Z,3.55
2023-02-01T01:53:33.633Z,2.70
2023-02-01T01:56:08.398Z,2.72
2023-02-01T01:58:35.965Z,2.42
2023-02-01T02:03:39.777Z,2.63
2023-02-01T02:06:21.471Z,3.53
2023-02-01T02:08:48.690Z,2.60
2023-02-01T02:11:35.598Z,2.90
2023-02-01T02:14:09.346Z,2.63
2023-02-01T02:16:36.813Z,2.63
2023-02-01T02:19:19.312Z,2.92
2023-02-01T02:22:08.471Z,2.80
2023-02-01T02:24:45.407Z,2.55
2023-02-01T02:27:32.482Z,2.38
2023-02-01T02:30:13.337Z,3.08
2023-02-01T02:32:55.108Z,2.58
2023-02-01T02:35:28.349Z,3.45
2023-02-01T02:37:55.444Z,2.85
2023-02-01T02:40:33.468Z,3.53
2023-02-01T02:43:25.144Z,2.90
2023-02-01T02:46:17.412Z,2.95
2023-02-01T02:48:47.989Z,2.88
2023-02-01T02:51:43.754Z,2.60
2023-02-01T02:54:34.263Z,3.35
2023-02-01T02:57:29.479Z,4.03
2023-02-01T03:00:16.844Z,2.65
2023-02-01T03:03:09.487Z,3.08
2023-02-01T03:05:38.202Z,3.90
2023-02-01T03:08:13.423Z,3.00
2023-02-01T03:10:59.173Z,3.25
2023-02-01T03:13:46.467Z,3.00
2023-02-01T03:16:32.491Z,3.03
2023-02-01T03:19:08.496Z,3.30
2023-02-01T03:21:35.554Z,4.25
2023-02-01T03:24:13.397Z,2.58
2023-02-01T03:26:43.201Z,3.70
2023-02-01T03:29:20.415Z,3.53
2023-02-01T03:31:47.825Z,2.85
2023-02-01T03:34:21.621Z,2.92
2023-02-01T03:37:00.086Z,2.92
2023-02-01T03:39:42.433Z,3.10
2023-02-01T03:42:24.335Z,2.78
2023-02-01T03:44:55.819Z,3.50
2023-02-01T03:47:30.388Z,2.42
2023-02-01T03:50:00.804Z,2.95
2023-02-01T03:52:43.349Z,3.58
2023-02-01T03:55:11.271Z,3.08
2023-02-01T03:57:54.354Z,2.35
2023-02-01T04:00:23.846Z,3.67
2023-02-01T04:02:57.349Z,2.33
2023-02-01T04:05:24.792Z,3.35
2023-02-01T04:07:58.450Z,3.72
2023-02-01T04:10:25.994Z,3.72
2023-02-01T04:15:34.898Z,2.90
2023-02-01T04:18:02.337Z,4.18
2023-02-01T04:20:36.535Z,4.45
2023-02-01T04:23:03.858Z,3.40
2023-02-01T04:25:38.504Z,3.17
2023-02-01T04:28:05.992Z,2.92
2023-02-01T04:30:33.283Z,3.50
2023-02-01T04:33:07.389Z,3.67
2023-02-01T04:35:34.618Z,3.60
2023-02-01T04:38:02.081Z,2.67
2023-02-01T04:43:02.773Z,2.80
2023-02-01T04:45:36.545Z,3.63
2023-02-01T04:48:04.001Z,2.85
2023-02-01T04:50:31.082Z,3.75
2023-02-01T04:53:04.438Z,3.90
2023-02-01T04:55:31.811Z,3.25
2023-02-01T04:58:05.607Z,3.80
2023-02-01T05:00:32.733Z,3.28
2023-02-01T05:02:59.860Z,3.58
2023-02-01T05:05:33.424Z,3.88
2023-02-01T05:08:00.720Z,3.10
2023-02-01T05:10:34.598Z,3.67
2023-02-01T05:13:27.972Z,3.30
2023-02-01T05:16:01.639Z,3.45
2023-02-01T05:18:28.964Z,3.35
2023-02-01T05:20:56.263Z,4.00
2023-02-01T05:23:30.431Z,3.78
2023-02-01T05:26:01.616Z,4.20
2023-02-01T05:28:35.516Z,4.07
2023-02-01T05:31:02.746Z,3.90
2023-02-01T05:33:36.588Z,4.13
2023-02-01T05:36:05.962Z,5.03
2023-02-01T05:38:34.161Z,4.75
2023-02-01T05:41:07.521Z,3.85
2023-02-01T05:43:34.771Z,4.28
2023-02-01T05:46:08.595Z,4.22
2023-02-01T05:48:35.778Z,4.18
2023-02-01T05:51:02.890Z,5.07
2023-02-01T05:53:36.642Z,5.43
2023-02-01T05:56:04.145Z,4.45
2023-02-01T05:58:38.529Z,4.30
2023-02-01T06:01:05.839Z,5.38
2023-02-01T06:03:33.070Z,4.50
2023-02-01T06:06:08.450Z,4.38
2023-02-01T06:08:35.700Z,4.43
2023-02-01T06:11:13.406Z,4.68
2023-02-01T06:13:47.436Z,4.43
2023-02-01T06:16:23.745Z,4.97
2023-02-01T06:18:51.038Z,4.28
2023-02-01T06:21:31.450Z,5.80
2023-02-01T06:24:05.376Z,4.32
2023-02-01T06:26:39.470Z,5.18
2023-02-01T06:29:14.528Z,5.43
2023-02-01T06:31:43.555Z,4.90
2023-02-01T06:34:10.768Z,4.70
2023-02-01T06:36:44.571Z,5.10
2023-02-01T06:39:20.369Z,5.15
2023-02-01T06:41:54.490Z,5.30
2023-02-01T06:44:21.865Z,5.32
2023-02-01T06:46:55.703Z,4.97
2023-02-01T06:49:23.263Z,6.10
2023-02-01T06:51:50.489Z,5.82
2023-02-01T06:54:24.506Z,5.05
2023-02-01T06:56:51.692Z,5.65
2023-02-01T06:59:25.597Z,6.13
2023-02-01T07:01:52.936Z,4.50
2023-02-01T07:04:20.093Z,5.20
2023-02-01T07:06:53.465Z,4.13
2023-02-01T07:09:20.622Z,5.20
2023-02-01T07:11:54.482Z,4.35
2023-02-01T07:14:28.489Z,5.78
2023-02-01T07:17:02.605Z,4.45
2023-02-01T07:19:30.050Z,5.68
2023-02-01T07:21:57.378Z,5.03
2023-02-01T07:24:31.489Z,4.22
2023-02-01T07:27:13.663Z,4.22
2023-02-01T07:29:54.498Z,4.30
2023-02-01T07:32:21.814Z,4.18
2023-02-01T07:34:48.920Z,4.35
2023-02-01T07:37:22.493Z,5.13
2023-02-01T07:39:49.802Z,5.03
2023-02-01T07:42:23.805Z,4.78
2023-02-01T07:44:51.052Z,3.92
2023-02-01T07:47:18.292Z,4.68
2023-02-01T07:49:51.515Z,3.88
2023-02-01T07:52:18.631Z,3.90
2023-02-01T07:54:52.780Z,4.20
2023-02-01T07:57:26.362Z,4.97
2023-02-01T08:00:18.669Z,3.95
2023-02-01T08:02:45.782Z,4.65
2023-02-01T08:05:26.973Z,3.67
2023-02-01T08:07:54.124Z,3.55
2023-02-01T08:10:21.639Z,3.53
2023-02-01T08:13:02.494Z,3.97
2023-02-01T08:15:36.739Z,3.85
2023-02-01T08:18:03.964Z,4.30
2023-02-01T08:20:31.252Z,3.78
2023-02-01T08:23:04.488Z,3.00
2023-02-01T08:25:32.692Z,3.33
2023-02-01T08:28:06.616Z,3.67
2023-02-01T08:30:33.834Z,3.63
2023-02-01T08:33:02.061Z,3.70
2023-02-01T08:35:43.268Z,3.63
2023-02-01T08:38:10.815Z,2.83
2023-02-01T08:40:44.612Z,4.20
2023-02-01T08:43:11.827Z,3.80
2023-02-01T08:45:39.050Z,4.13
2023-02-01T08:48:12.558Z,3.53
2023-02-01T08:50:39.890Z,3.97
2023-02-01T08:53:13.666Z,3.42
2023-02-01T08:55:40.862Z,4.20
2023-02-01T08:58:08.025Z,4.05
2023-02-01T09:00:41.504Z,3.78
2023-02-01T09:03:11.839Z,4.28
2023-02-01T09:05:49.859Z,3.92
2023-02-01T09:10:57.640Z,3.13
2023-02-01T09:13:44.428Z,4.40
2023-02-01T09:16:18.567Z,4.07
2023-02-01T09:18:55.622Z,4.03
2023-02-01T09:21:35.583Z,3.47
2023-02-01T09:24:02.786Z,3.10
2023-02-01T09:26:32.464Z,3.40
2023-02-01T09:29:07.504Z,3.97
2023-02-01T09:31:34.777Z,3.85
2023-02-01T09:34:08.754Z,3.05
2023-02-01T09:36:36.279Z,3.60
2023-02-01T09:41:55.501Z,3.72
2023-02-01T09:44:44.064Z,4.30
2023-02-01T09:47:23.515Z,5.15
2023-02-01T09:50:09.156Z,3.88
2023-02-01T09:52:51.492Z,3.60
2023-02-01T09:55:21.508Z,4.35
2023-02-01T09:58:02.596Z,3.85
2023-02-01T10:00:36.128Z,4.47
2023-02-01T10:03:10.625Z,5.05
2023-02-01T10:05:37.805Z,3.83
2023-02-01T10:08:17.577Z,3.92
2023-02-01T10:10:44.644Z,3.58
2023-02-01T10:13:31.514Z,5.72
2023-02-01T10:16:01.794Z,5.22
2023-02-01T10:18:56.600Z,5.35
2023-02-01T10:21:26.780Z,4.50
2023-02-01T10:24:18.577Z,4.60
2023-02-01T10:27:27.451Z,4.68
2023-02-01T10:30:01.118Z,3.92
2023-02-01T10:32:39.620Z,3.78
2023-02-01T10:35:32.767Z,3.92
2023-02-01T10:38:09.447Z,3.72
2023-02-01T10:40:37.088Z,4.03
2023-02-01T10:43:11.598Z,3.58
2023-02-01T10:45:40.917Z,4.18
2023-02-01T10:48:09.739Z,3.25
2023-02-01T10:51:02.547Z,4.15
2023-02-01T10:53:39.205Z,4.75
2023-02-01T10:56:16.718Z,3.83
2023-02-01T10:58:48.080Z,3.45
2023-02-01T11:01:35.778Z,3.20
2023-02-01T11:04:04.065Z,3.40
2023-02-01T11:06:58.594Z,3.38
2023-02-01T11:09:27.280Z,3.58
2023-02-01T11:12:02.729Z,4.40
2023-02-01T11:14:41.406Z,3.30
2023-02-01T11:17:25.802Z,3.47
2023-02-01T11:19:58.738Z,4.05
2023-02-01T11:22:34.760Z,3.95
2023-02-01T11:25:03.153Z,4.07
2023-02-01T11:27:30.264Z,3.78
2023-02-01T11:30:07.552Z,3.75
2023-02-01T11:32:34.751Z,3.22
2023-02-01T11:35:06.701Z,3.75
2023-02-01T11:37:45.625Z,3.40
2023-02-01T11:40:24.714Z,3.15
2023-02-01T11:42:56.140Z,3.10
2023-02-01T11:45:34.565Z,4.22
2023-02-01T11:48:02.055Z,3.63
2023-02-01T11:53:02.487Z,3.78
2023-02-01T11:55:32.687Z,4.07
2023-02-01T11:58:09.443Z,3.20
2023-02-01T12:00:51.418Z,3.72
2023-02-01T12:03:31.502Z,3.22
2023-02-01T12:06:09.940Z,3.67
2023-02-01T12:08:48.478Z,3.72
2023-02-01T12:11:34.197Z,3.05
2023-02-01T12:14:24.467Z,4.25
2023-02-01T12:17:14.492Z,3.53
2023-02-01T12:19:57.499Z,3.35
2023-02-01T12:22:38.266Z,4.05
2023-02-01T12:25:14.483Z,3.45
2023-02-01T12:27:53.367Z,4.22
2023-02-01T12:30:42.480Z,3.53
2023-02-01T12:33:17.092Z,3.58
2023-02-01T12:35:55.513Z,2.95
2023-02-01T12:38:41.462Z,4.20
2023-02-01T12:41:33.647Z,3.45
2023-02-01T12:44:18.143Z,3.22
2023-02-01T12:46:55.491Z,3.78
2023-02-01T12:49:35.092Z,3.10
2023-02-01T12:52:10.504Z,3.70
2023-02-01T12:54:50.272Z,3.88
2023-02-01T12:57:32.510Z,3.22
2023-02-01T13:00:10.964Z,4.07
2023-02-01T13:02:50.651Z,4.10
2023-02-01T13:05:26.510Z,3.92
2023-02-01T13:08:15.625Z,3.65
2023-02-01T13:10:44.954Z,4.00
2023-02-01T13:13:38.622Z,4.28
2023-02-01T13:16:18.025Z,3.55
2023-02-01T13:18:54.631Z,3.70
2023-02-01T20:25:19.921Z,1.10
2023-02-01T20:27:48.015Z,1.20
2023-02-01T20:30:27.086Z,1.10
2023-02-01T20:32:54.199Z,0.88
2023-02-01T20:35:22.072Z,1.52
2023-02-01T20:37:56.773Z,0.85
2023-02-01T20:40:23.966Z,1.10
2023-02-01T20:42:51.157Z,1.00
2023-02-01T20:45:24.992Z,1.08
2023-02-01T20:47:55.282Z,1.05
2023-02-01T20:50:28.839Z,1.05
2023-02-01T20:52:56.111Z,0.85
2023-02-01T20:55:25.231Z,0.98
2023-02-01T20:57:59.779Z,0.90
2023-02-01T21:00:28.141Z,0.88
2023-02-01T21:03:01.963Z,0.93
2023-02-01T21:05:40.069Z,1.10
2023-02-01T21:10:41.077Z,0.90
2023-02-01T21:13:08.573Z,0.90
2023-02-01T21:18:11.615Z,1.15
2023-02-01T21:20:44.967Z,1.17
2023-02-01T21:23:32.687Z,1.88
2023-02-01T21:26:09.882Z,1.35
2023-02-01T21:28:37.262Z,1.30
2023-02-01T21:33:37.788Z,1.58
2023-02-01T21:36:06.926Z,1.33
2023-02-01T21:38:41.909Z,0.90
2023-02-01T21:41:28.095Z,0.93
2023-02-01T21:44:02.089Z,1.25
2023-02-01T21:46:29.309Z,1.15
2023-02-01T21:49:05.372Z,1.08
2023-02-01T21:51:41.991Z,1.17
2023-02-01T21:54:09.935Z,1.25
2023-02-01T21:56:37.833Z,0.90
2023-02-01T21:59:11.903Z,1.00
2023-02-01T22:01:40.069Z,1.20
2023-02-01T22:04:07.782Z,1.00
2023-02-01T22:06:42.902Z,1.10
2023-02-01T22:09:22.797Z,0.90
2023-02-01T22:11:50.897Z,1.08
2023-02-01T22:14:18.298Z,1.33
2023-02-01T22:16:51.862Z,0.98
2023-02-01T22:19:19.408Z,0.77
2023-02-01T22:24:40.726Z,1.08
2023-02-01T22:27:15.038Z,0.90
2023-02-01T22:29:42.903Z,0.90
2023-02-01T22:32:10.061Z,0.80
2023-02-01T22:34:43.973Z,1.45
2023-02-01T22:37:12.043Z,1.02
2023-02-01T22:39:39.403Z,0.80
2023-02-01T22:42:12.816Z,0.93
2023-02-01T22:44:41.374Z,1.20
2023-02-01T22:47:09.137Z,1.00
2023-02-01T22:49:42.790Z,0.93
2023-02-01T22:52:10.069Z,1.05
2023-02-01T22:54:44.015Z,1.00
2023-02-01T22:57:11.287Z,1.17
2023-02-01T22:59:39.154Z,0.82
2023-02-01T23:02:13.014Z,0.60
2023-02-01T23:04:40.273Z,1.10
2023-02-01T23:07:07.441Z,0.95
2023-02-01T23:09:40.904Z,0.57
2023-02-01T23:12:08.098Z,1.20
2023-02-01T23:15:01.923Z,0.73
2023-02-01T23:17:29.092Z,0.95
2023-02-01T23:19:56.178Z,0.98
2023-02-01T23:22:29.755Z,0.60
2023-02-01T23:25:03.765Z,0.70
2023-02-01T23:27:38.009Z,1.02
2023-02-01T23:30:06.052Z,0.68
2023-02-01T23:32:33.665Z,1.10
2023-02-01T23:35:07.755Z,0.90
2023-02-01T23:37:34.935Z,0.70
2023-02-01T23:40:08.786Z,0.63
2023-02-01T23:42:36.023Z,0.70
2023-02-01T23:45:03.359Z,0.77
2023-02-01T23:47:36.857Z,0.70
2023-02-01T23:50:04.065Z,1.38
2023-02-01T23:52:37.942Z,0.60
2023-02-01T23:55:05.171Z,0.90
2023-02-01T23:57:32.280Z,0.57
